To NAV CANADA Home Page Login to a new session Search on AWWS site Disclaimer Vers la page française équivalente Tips FAQ What's new on the site To the Forecasts and Observations / NOTAM section To "File a Flight Plan" website Publications and other links Update of the User's profile FIC Telephone Numbers My Weather Data Folder Route Weather Data Regional Weather Data Local Weather Data To the Forecasts and Observations / NOTAM section
Request Generated 01/24/2022 at 23:09:21 UTC . Weather information available at that time is displayed.

METAR/TAF

MONTREAL/PIERRE-ELLIOTT-TRUDEAU INTL/QC    

METAR CYUL 242300Z 09005KT 15SM OVC090 M13/M19 A2990 RMK AC8 SLP131=
METAR CYUL 242200Z 10007KT 15SM BKN085 OVC100 M13/M19 A2989 RMK AC6AC2 SLP128=
METAR CYUL 242100Z 06004KT 15SM OVC100 M13/M20 A2990 RMK AC8 SLP130=

TAF CYUL 242040Z 2421/2518 10005KT P6SM SCT040 OVC090 TEMPO
2421/2424 5SM -SN OVC040
FM250000 04008KT P6SM SCT015 OVC040 TEMPO 2500/2502 2SM -SHSN
BKN015 OVC040
FM250200 04006KT 2SM -SN OVC008 TEMPO 2502/2506 4SM -SN OVC015
FM250600 03006KT 6SM -SN SCT008 BKN012
FM251700 03008KT 5SM -SN BKN015 OVC040
RMK NXT FCST BY 250000Z=
Your time UTC time
Weather data provided by Environment Canada and NAV CANADA